Finlandia — OJPP — position and weather

sailwx.info

Track history (hours):
 
Tides and Currents Weather Stations Pressure Air Temp Water Temp Dewpoint Dewpoint Depression Visibility Wind Speed Wind Dir Waves Ship Positions

Finlandia

Last reported at 2016-Feb-06 10:33 UTC. Time now 2016-Feb-06 11:32 UTC.
Position N 59°39' E 024°43'.

Length 175 m; draft 7 m.

Type: Ship (hazmat cat A). MMSI: 230628000.

Date/timePositionNaut miles runAvg speedWind from/ knotsBaromVisibWave heightAir tempDewpointWater temp
2016-Feb-06 10:33N 59°39' E 024°43'1212.1
2016-Feb-06 09:33N 59°27' E 024°46'3 3.5
2016-Feb-06 08:34N 59°30' E 024°45'12 0.8
2016-Feb-05 17:33N 59°42' E 024°46'1515.5
2016-Feb-05 16:33N 59°27' E 024°46'1 1.0
2016-Feb-05 15:33N 59°28' E 024°47'11 2.2
2016-Feb-05 10:34N 59°38' E 024°42'1211.7
2016-Feb-05 09:33N 59°27' E 024°46'3 3.2
2016-Feb-05 08:33N 59°30' E 024°45'12 0.8
2016-Feb-04 17:33N 59°42' E 024°46'1515.5
2016-Feb-04 16:33N 59°27' E 024°46'0 0.4
2016-Feb-04 15:33N 59°27' E 024°46'12 2.4
2016-Feb-04 10:33N 59°39' E 024°43'1212.3
2016-Feb-04 09:33N 59°27' E 024°46'3 3.2
2016-Feb-04 08:34N 59°30' E 024°45'11 0.7
2016-Feb-03 17:34N 59°41' E 024°45'1414.2
2016-Feb-03 16:33N 59°27' E 024°46'0 0.3
2016-Feb-03 15:33N 59°27' E 024°46'21 4.6
2016-Feb-03 11:03N 59°47' E 024°45'1019.9
2016-Feb-03 10:32N 59°37' E 024°41'1111.1
2016-Feb-03 09:33N 59°27' E 024°46'3 3.3
2016-Feb-03 08:34N 59°30' E 024°45'13 0.9
2016-Feb-02 17:33N 59°43' E 024°41'1616.4
2016-Feb-02 16:33N 59°27' E 024°46'0 0.2
2016-Feb-02 15:33N 59°27' E 024°46'8 1.7
2016-Feb-02 10:31N 59°35' E 024°42'8 8.8
2016-Feb-02 09:34N 59°27' E 024°46'3 3.2
2016-Feb-02 08:33N 59°30' E 024°45'11 0.7
2016-Feb-01 17:33N 59°41' E 024°44'1413.9
2016-Feb-01 16:33N 59°27' E 024°46'3 3.5
2016-Feb-01 15:34N 59°30' E 024°45'3123.3
2016-Feb-01 14:15N 60°00' E 024°54'27 7.3
2016-Feb-01 10:34N 59°34' E 024°43'8 7.5
2016-Feb-01 09:33N 59°27' E 024°46'3 3.2
2016-Feb-01 08:33N 59°30' E 024°45'11 0.7
2016-Jan-31 17:33N 59°41' E 024°45'1414.6
2016-Jan-31 16:33N 59°27' E 024°46'0 0.2
2016-Jan-31 15:33N 59°27' E 024°46'10 2.0
2016-Jan-31 10:33N 59°37' E 024°41'1010.2
2016-Jan-31 09:33N 59°27' E 024°46'3 3.3
2016-Jan-31 08:34N 59°30' E 024°45'13 0.9
2016-Jan-30 17:33N 59°43' E 024°40'1616.6
2016-Jan-30 16:33N 59°27' E 024°46'0 0.3
2016-Jan-30 15:34N 59°27' E 024°46'11 2.2
2016-Jan-30 10:33N 59°37' E 024°41'1110.9
2016-Jan-30 09:33N 59°27' E 024°46'5 4.8
2016-Jan-30 08:34N 59°31' E 024°44'11 0.7
2016-Jan-29 17:33N 59°42' E 024°46'1515.2
2016-Jan-29 16:33N 59°27' E 024°46'4 3.8
2016-Jan-29 15:33N 59°30' E 024°44'8 1.5
2016-Jan-29 10:34N 59°38' E 024°43'1111.1
2016-Jan-29 09:32N 59°27' E 024°46'4 3.6
2016-Jan-29 08:33N 59°30' E 024°45'9 0.6
2016-Jan-28 17:33N 59°39' E 024°43'1212.5
2016-Jan-28 16:34N 59°27' E 024°46'6 6.1
2016-Jan-28 15:34N 59°33' E 024°42'6 1.1
2016-Jan-28 10:34N 59°38' E 024°41'1211.7
2016-Jan-28 09:33N 59°27' E 024°46'3 3.1
2016-Jan-28 08:34N 59°30' E 024°45'9 0.6
2016-Jan-27 17:33N 59°38' E 024°41'12 9.3
2016-Jan-27 16:15N 59°27' E 024°46'  
Track history (hours):
 
Tides and Currents Weather Stations Pressure Air Temp Water Temp Dewpoint Dewpoint Depression Visibility Wind Speed Wind Dir Waves Ship Positions

Finlandia

Last reported at 2016-Feb-06 10:33 UTC. Time now 2016-Feb-06 11:32 UTC.
Position N 59°39' E 024°43'.

Length 175 m; draft 7 m.

Type: Ship (hazmat cat A). MMSI: 230628000.

Date/timePositionNaut miles runAvg speedWind from/ knotsBaromVisibWave heightAir tempDewpointWater temp
2016-Feb-06 10:33N 59°39' E 024°43'1212.1
2016-Feb-06 09:33N 59°27' E 024°46'3 3.5
2016-Feb-06 08:34N 59°30' E 024°45'12 0.8
2016-Feb-05 17:33N 59°42' E 024°46'1515.5
2016-Feb-05 16:33N 59°27' E 024°46'1 1.0
2016-Feb-05 15:33N 59°28' E 024°47'11 2.2
2016-Feb-05 10:34N 59°38' E 024°42'1211.7
2016-Feb-05 09:33N 59°27' E 024°46'3 3.2
2016-Feb-05 08:33N 59°30' E 024°45'12 0.8
2016-Feb-04 17:33N 59°42' E 024°46'1515.5
2016-Feb-04 16:33N 59°27' E 024°46'0 0.4
2016-Feb-04 15:33N 59°27' E 024°46'12 2.4
2016-Feb-04 10:33N 59°39' E 024°43'1212.3
2016-Feb-04 09:33N 59°27' E 024°46'3 3.2
2016-Feb-04 08:34N 59°30' E 024°45'11 0.7
2016-Feb-03 17:34N 59°41' E 024°45'1414.2
2016-Feb-03 16:33N 59°27' E 024°46'0 0.3
2016-Feb-03 15:33N 59°27' E 024°46'21 4.6
2016-Feb-03 11:03N 59°47' E 024°45'1019.9
2016-Feb-03 10:32N 59°37' E 024°41'1111.1
2016-Feb-03 09:33N 59°27' E 024°46'3 3.3
2016-Feb-03 08:34N 59°30' E 024°45'13 0.9
2016-Feb-02 17:33N 59°43' E 024°41'1616.4
2016-Feb-02 16:33N 59°27' E 024°46'0 0.2
2016-Feb-02 15:33N 59°27' E 024°46'8 1.7
2016-Feb-02 10:31N 59°35' E 024°42'8 8.8
2016-Feb-02 09:34N 59°27' E 024°46'3 3.2
2016-Feb-02 08:33N 59°30' E 024°45'11 0.7
2016-Feb-01 17:33N 59°41' E 024°44'1413.9
2016-Feb-01 16:33N 59°27' E 024°46'3 3.5
2016-Feb-01 15:34N 59°30' E 024°45'3123.3
2016-Feb-01 14:15N 60°00' E 024°54'27 7.3
2016-Feb-01 10:34N 59°34' E 024°43'8 7.5
2016-Feb-01 09:33N 59°27' E 024°46'3 3.2
2016-Feb-01 08:33N 59°30' E 024°45'11 0.7
2016-Jan-31 17:33N 59°41' E 024°45'1414.6
2016-Jan-31 16:33N 59°27' E 024°46'0 0.2
2016-Jan-31 15:33N 59°27' E 024°46'10 2.0
2016-Jan-31 10:33N 59°37' E 024°41'1010.2
2016-Jan-31 09:33N 59°27' E 024°46'3 3.3
2016-Jan-31 08:34N 59°30' E 024°45'13 0.9
2016-Jan-30 17:33N 59°43' E 024°40'1616.6
2016-Jan-30 16:33N 59°27' E 024°46'0 0.3
2016-Jan-30 15:34N 59°27' E 024°46'11 2.2
2016-Jan-30 10:33N 59°37' E 024°41'1110.9
2016-Jan-30 09:33N 59°27' E 024°46'5 4.8
2016-Jan-30 08:34N 59°31' E 024°44'11 0.7
2016-Jan-29 17:33N 59°42' E 024°46'1515.2
2016-Jan-29 16:33N 59°27' E 024°46'4 3.8
2016-Jan-29 15:33N 59°30' E 024°44'8 1.5
2016-Jan-29 10:34N 59°38' E 024°43'1111.1
2016-Jan-29 09:32N 59°27' E 024°46'4 3.6
2016-Jan-29 08:33N 59°30' E 024°45'9 0.6
2016-Jan-28 17:33N 59°39' E 024°43'1212.5
2016-Jan-28 16:34N 59°27' E 024°46'6 6.1
2016-Jan-28 15:34N 59°33' E 024°42'6 1.1
2016-Jan-28 10:34N 59°38' E 024°41'1211.7
2016-Jan-28 09:33N 59°27' E 024°46'3 3.1
2016-Jan-28 08:34N 59°30' E 024°45'9 0.6
2016-Jan-27 17:33N 59°38' E 024°41'12 9.3
2016-Jan-27 16:15N 59°27' E 024°46'  

Dump ship's entire track history